Time;durP1;ratioP1;P1;durP2;ratioP2;P2;SDS_P1;SDS_P2;PMS_P1;PMS_P2;Temp;Humidity;BMP_temperature;BMP_pressure;BME280_temperature;BME280_humidity;BME280_pressure;Samples;Min_cycle;Max_cycle;Signal;HPM_P1;HPM_P2
2021/12/25 00:01:48;;;;;;;12.18;5.05;;;11.80;59.30;;;;;;4997861;28;20018;-58
2021/12/25 00:04:14;;;;;;;11.55;4.88;;;11.80;59.30;;;;;;4999929;28;20041;-55
2021/12/25 00:06:40;;;;;;;13.15;5.22;;;11.80;59.40;;;;;;4999427;28;20041;-56
2021/12/25 00:09:07;;;;;;;14.15;5.38;;;11.80;59.50;;;;;;5000476;28;20064;-58
2021/12/25 00:11:33;;;;;;;13.57;5.35;;;11.70;59.50;;;;;;4993171;28;20057;-54
2021/12/25 00:13:59;;;;;;;15.23;5.18;;;11.70;59.50;;;;;;4999113;28;20018;-58
2021/12/25 00:16:26;;;;;;;12.70;5.32;;;11.70;59.60;;;;;;4994639;28;20096;-57
2021/12/25 00:18:52;;;;;;;13.93;5.53;;;11.70;59.70;;;;;;4998051;28;20034;-57
2021/12/25 00:21:18;;;;;;;11.32;5.05;;;11.70;59.70;;;;;;4992996;28;20018;-55
2021/12/25 00:23:44;;;;;;;10.48;5.10;;;11.70;59.70;;;;;;5000582;28;20041;-56
2021/12/25 00:26:12;;;;;;;9.20;5.05;;;11.70;59.80;;;;;;4999456;28;20026;-58
2021/12/25 00:36:14;;;;;;;7.35;4.63;;;11.80;60.40;;;;;;5000776;28;20022;-57
2021/12/25 00:38:44;;;;;;;10.07;4.88;;;11.70;59.70;;;;;;4998090;28;20497;-56
2021/12/25 00:41:12;;;;;;;13.98;5.35;;;11.70;59.70;;;;;;4998603;28;20076;-56
2021/12/25 00:43:39;;;;;;;11.57;4.95;;;11.70;59.70;;;;;;5001622;28;20386;-56
2021/12/25 00:46:05;;;;;;;12.43;5.43;;;11.70;59.70;;;;;;4997532;28;20029;-58
2021/12/25 00:48:31;;;;;;;8.20;4.95;;;11.70;59.80;;;;;;4998405;28;20033;-54
2021/12/25 00:50:57;;;;;;;9.77;4.80;;;11.70;59.80;;;;;;4996670;28;21302;-55
2021/12/25 00:53:23;;;;;;;8.35;4.78;;;11.70;59.80;;;;;;5000963;28;20363;-56
2021/12/25 00:55:50;;;;;;;11.43;5.03;;;11.70;59.80;;;;;;5000233;28;20046;-58
2021/12/25 00:58:16;;;;;;;12.25;5.53;;;11.70;59.80;;;;;;4998646;28;20034;-56
2021/12/25 01:00:43;;;;;;;13.13;6.07;;;11.70;59.80;;;;;;4993489;28;20410;-56
2021/12/25 01:03:09;;;;;;;8.88;5.32;;;11.70;59.80;;;;;;4999203;28;20046;-56
2021/12/25 01:05:35;;;;;;;15.50;5.88;;;11.70;59.90;;;;;;5001060;28;20521;-58
2021/12/25 01:08:02;;;;;;;9.40;4.80;;;11.70;59.90;;;;;;4996965;28;20042;-55
2021/12/25 01:10:28;;;;;;;10.45;5.18;;;11.70;59.90;;;;;;4999175;28;20034;-56
2021/12/25 01:13:15;;;;;;;14.77;5.75;;;11.70;59.90;;;;;;4977596;28;20038;-56
2021/12/25 01:29:48;;;;;;;10.48;5.22;;;11.60;60.00;;;;;;4999062;28;20037;-57
2021/12/25 01:37:04;;;;;;;8.93;4.72;;;11.60;60.00;;;;;;4999161;28;20037;-55
2021/12/25 01:50:10;;;;;;;13.15;4.97;;;11.60;60.20;;;;;;5008130;28;20592;-54
2021/12/25 01:52:37;;;;;;;10.75;5.32;;;11.60;60.30;;;;;;5002316;28;20030;-58
2021/12/25 01:55:07;;;;;;;13.10;5.15;;;11.60;60.30;;;;;;4983001;28;20034;-58
2021/12/25 01:57:34;;;;;;;10.68;4.72;;;11.50;60.30;;;;;;5000193;28;20033;-58
2021/12/25 02:00:01;;;;;;;10.25;5.07;;;11.60;60.40;;;;;;5002600;28;20042;-56
2021/12/25 02:02:28;;;;;;;8.80;4.32;;;11.60;60.40;;;;;;4999085;28;20050;-57
2021/12/25 02:04:54;;;;;;;9.57;4.70;;;11.60;60.40;;;;;;5002971;28;20056;-58
2021/12/25 02:07:21;;;;;;;9.15;4.70;;;11.50;60.30;;;;;;5001386;28;20038;-58
2021/12/25 02:09:48;;;;;;;11.07;4.88;;;11.60;60.40;;;;;;4983284;28;20030;-55
2021/12/25 02:12:15;;;;;;;15.23;4.80;;;11.60;60.50;;;;;;4998708;28;20053;-56
2021/12/25 02:14:44;;;;;;;9.48;4.55;;;11.50;60.40;;;;;;5000568;28;20034;-56
2021/12/25 02:17:23;;;;;;;11.23;4.72;;;11.60;60.50;;;;;;4996858;28;20045;-56
2021/12/25 02:20:12;;;;;;;12.50;4.88;;;11.50;60.50;;;;;;4981807;28;20482;-57
2021/12/25 02:22:39;;;;;;;12.00;4.40;;;11.50;60.50;;;;;;5002043;28;20023;-56
2021/12/25 02:25:06;;;;;;;10.43;4.82;;;11.60;60.50;;;;;;5002798;28;20018;-55
2021/12/25 02:27:32;;;;;;;9.25;4.30;;;11.50;60.50;;;;;;5000881;28;20040;-55
2021/12/25 02:29:59;;;;;;;11.45;4.43;;;11.60;60.60;;;;;;5000639;28;20037;-56
2021/12/25 02:32:25;;;;;;;7.78;3.65;;;11.60;60.60;;;;;;4999318;28;20033;-56
2021/12/25 02:34:51;;;;;;;11.05;4.43;;;11.50;60.50;;;;;;5002794;28;20498;-55
2021/12/25 02:37:17;;;;;;;8.38;4.78;;;11.60;60.60;;;;;;4998395;28;20038;-58
2021/12/25 02:39:44;;;;;;;11.90;4.40;;;11.50;60.50;;;;;;4981745;28;20040;-55
2021/12/25 02:42:10;;;;;;;9.15;4.57;;;11.50;60.50;;;;;;5000210;28;20092;-55
2021/12/25 02:44:37;;;;;;;9.07;4.47;;;11.50;60.60;;;;;;5000694;28;20835;-58
2021/12/25 02:47:09;;;;;;;9.25;4.38;;;11.50;60.50;;;;;;4998491;28;20026;-58
2021/12/25 02:49:36;;;;;;;9.32;4.63;;;11.50;60.60;;;;;;4999856;28;20511;-56
2021/12/25 02:52:05;;;;;;;10.45;4.20;;;11.50;60.60;;;;;;5000753;28;20030;-56
2021/12/25 02:54:31;;;;;;;8.10;4.28;;;11.50;60.60;;;;;;5002689;28;20049;-56
2021/12/25 02:56:58;;;;;;;9.98;4.70;;;11.50;60.60;;;;;;5001181;28;20033;-55
2021/12/25 02:59:24;;;;;;;11.50;4.68;;;11.50;60.80;;;;;;4999865;28;20048;-56
2021/12/25 03:01:50;;;;;;;7.72;4.97;;;11.50;60.70;;;;;;4998169;28;20037;-56
2021/12/25 03:04:16;;;;;;;11.88;5.38;;;11.50;60.70;;;;;;5002192;28;20026;-55
2021/12/25 03:06:42;;;;;;;7.10;4.60;;;11.50;60.80;;;;;;5001570;28;20037;-56
2021/12/25 03:09:08;;;;;;;9.75;4.35;;;11.50;60.80;;;;;;4997384;28;20030;-55
2021/12/25 03:11:35;;;;;;;13.68;4.88;;;11.50;60.80;;;;;;4998572;28;20038;-55
2021/12/25 03:14:31;;;;;;;7.68;4.15;;;11.50;60.80;;;;;;5001400;28;20026;-58
2021/12/25 03:16:56;;;;;;;9.73;4.63;;;11.50;60.80;;;;;;4998081;28;20858;-58
2021/12/25 03:19:30;;;;;;;11.98;4.93;;;11.50;60.80;;;;;;4999832;28;20033;-54
2021/12/25 03:21:57;;;;;;;8.73;4.57;;;11.50;60.80;;;;;;4998398;28;20018;-57
2021/12/25 03:24:25;;;;;;;10.90;4.43;;;11.50;60.90;;;;;;5001136;28;20470;-52
2021/12/25 03:26:54;;;;;;;9.15;4.50;;;11.50;61.00;;;;;;5000360;28;20029;-54
2021/12/25 03:29:21;;;;;;;8.45;3.90;;;11.50;61.00;;;;;;4998016;28;20501;-56
2021/12/25 03:31:47;;;;;;;14.48;5.03;;;11.50;61.10;;;;;;4997475;28;20033;-56
2021/12/25 03:34:14;;;;;;;8.85;4.30;;;11.50;61.10;;;;;;4998953;28;20041;-56
2021/12/25 03:36:40;;;;;;;11.80;4.82;;;11.50;61.20;;;;;;5000938;28;20026;-53
2021/12/25 03:39:06;;;;;;;9.98;4.65;;;11.50;61.20;;;;;;4997586;28;20398;-55
2021/12/25 03:41:33;;;;;;;8.80;4.35;;;11.40;61.20;;;;;;5000549;28;20022;-57
2021/12/25 03:44:00;;;;;;;10.30;4.57;;;11.40;61.30;;;;;;5001344;28;20026;-56
2021/12/25 03:46:31;;;;;;;13.70;4.90;;;11.40;61.30;;;;;;4998005;28;20037;-54
2021/12/25 03:49:02;;;;;;;12.23;5.03;;;11.40;61.40;;;;;;4999109;28;20041;-57
2021/12/25 03:59:47;;;;;;;;;;;11.50;61.60;;;;;;5007764;28;19917;-54
2021/12/25 04:02:20;;;;;;;7.93;4.25;;;11.50;61.30;;;;;;4998152;28;20262;-55
2021/12/25 04:04:49;;;;;;;8.52;4.28;;;11.40;61.00;;;;;;4980595;28;20037;-56
2021/12/25 04:07:43;;;;;;;8.32;4.43;;;11.40;61.20;;;;;;4998206;28;20054;-54
2021/12/25 04:10:03;;;;;;;12.18;5.03;;;11.40;61.30;;;;;;5001190;28;20580;-57
2021/12/25 04:12:30;;;;;;;7.13;4.05;;;11.40;61.40;;;;;;4999690;28;20045;-55
2021/12/25 04:14:57;;;;;;;30.58;3.83;;;11.30;61.50;;;;;;5000583;28;20030;-54
2021/12/25 04:17:23;;;;;;;262.40;8.75;;;11.40;61.70;;;;;;4988278;28;20034;-56
2021/12/25 04:19:49;;;;;;;370.70;10.38;;;11.30;61.60;;;;;;4996752;28;20045;-54
2021/12/25 04:22:21;;;;;;;8.57;4.78;;;11.30;61.60;;;;;;4999807;28;20056;-54
2021/12/25 04:24:49;;;;;;;8.80;4.82;;;11.30;62.50;;;;;;4999371;28;20521;-57
2021/12/25 04:27:16;;;;;;;11.50;5.47;;;11.20;62.30;;;;;;4998913;28;20041;-55
2021/12/25 04:30:00;;;;;;;10.52;5.60;;;11.20;62.70;;;;;;4997700;28;20463;-52
2021/12/25 04:32:56;;;;;;;8.80;5.07;;;11.20;62.80;;;;;;4990249;28;20046;-54
2021/12/25 05:05:02;;;;;;;9.52;5.00;;;11.40;62.20;;;;;;5000275;28;20525;-54
2021/12/25 05:07:28;;;;;;;8.70;5.25;;;11.50;62.50;;;;;;4997115;28;20034;-53
2021/12/25 05:09:56;;;;;;;7.93;4.75;;;11.50;62.80;;;;;;5000049;28;20081;-55
2021/12/25 05:12:22;;;;;;;9.77;5.05;;;11.50;62.90;;;;;;4998040;28;20486;-54
2021/12/25 05:14:48;;;;;;;8.05;4.72;;;11.60;62.70;;;;;;4996833;28;20034;-54
2021/12/25 05:17:15;;;;;;;9.00;5.88;;;11.60;62.50;;;;;;4989481;28;20034;-55
2021/12/25 05:19:41;;;;;;;6.82;4.97;;;11.70;62.30;;;;;;4998696;28;20049;-54
2021/12/25 05:22:07;;;;;;;7.60;4.97;;;11.70;62.10;;;;;;5000924;28;20316;-56
2021/12/25 05:24:34;;;;;;;8.90;5.47;;;11.70;61.80;;;;;;4983450;28;20034;-55
2021/12/25 05:27:01;;;;;;;9.10;5.78;;;11.80;61.50;;;;;;5002299;28;20501;-55
2021/12/25 05:29:30;;;;;;;9.02;5.75;;;11.80;61.30;;;;;;5002425;28;20030;-52
2021/12/25 05:31:56;;;;;;;9.35;5.70;;;11.80;61.10;;;;;;4999180;28;20065;-52
2021/12/25 05:34:22;;;;;;;12.38;6.05;;;11.80;61.00;;;;;;5003474;28;20041;-56
2021/12/25 05:36:49;;;;;;;6.53;5.47;;;11.80;60.80;;;;;;5003408;28;20038;-52
2021/12/25 05:39:15;;;;;;;6.85;4.78;;;11.80;60.70;;;;;;5000217;28;20038;-55
2021/12/25 05:41:42;;;;;;;8.77;5.57;;;11.80;60.60;;;;;;5003175;28;20026;-52
2021/12/25 05:44:08;;;;;;;7.65;5.22;;;11.80;60.60;;;;;;5000706;28;20032;-56
2021/12/25 05:46:34;;;;;;;9.07;5.70;;;11.80;60.50;;;;;;4999957;28;20033;-55
2021/12/25 05:49:00;;;;;;;8.90;5.60;;;11.80;60.40;;;;;;5000185;28;20033;-54
2021/12/25 05:51:26;;;;;;;7.43;5.25;;;11.70;60.40;;;;;;4979638;28;20046;-51
2021/12/25 05:53:53;;;;;;;7.05;5.32;;;11.70;60.40;;;;;;5002804;28;20037;-55
2021/12/25 05:56:19;;;;;;;7.28;5.13;;;11.70;60.40;;;;;;5003234;28;20401;-55
2021/12/25 05:58:45;;;;;;;6.00;4.80;;;11.70;60.40;;;;;;4977241;28;20409;-55
2021/12/25 06:01:12;;;;;;;10.00;5.40;;;11.70;60.40;;;;;;5001968;28;20021;-54
2021/12/25 06:03:38;;;;;;;8.60;5.78;;;11.60;60.40;;;;;;5003654;28;20029;-55
2021/12/25 06:06:04;;;;;;;7.60;5.45;;;11.60;60.50;;;;;;5004091;28;20394;-55
2021/12/25 06:08:30;;;;;;;9.95;5.40;;;11.60;60.50;;;;;;4998976;28;20041;-52
2021/12/25 06:10:57;;;;;;;6.82;5.07;;;11.50;60.40;;;;;;4999363;28;20042;-55
2021/12/25 06:13:23;;;;;;;6.32;4.60;;;11.50;60.50;;;;;;5002474;28;20049;-53
2021/12/25 06:15:52;;;;;;;5.80;3.88;;;11.50;60.50;;;;;;5000223;28;20449;-56
2021/12/25 06:18:19;;;;;;;5.60;3.50;;;11.50;60.50;;;;;;4999335;28;20033;-57
2021/12/25 06:20:45;;;;;;;5.45;3.22;;;11.40;60.40;;;;;;5000635;28;20024;-53
2021/12/25 06:23:11;;;;;;;3.67;3.03;;;11.40;60.50;;;;;;5000037;28;20037;-54
2021/12/25 06:25:37;;;;;;;4.78;2.85;;;11.30;60.50;;;;;;5000990;28;20017;-55
2021/12/25 06:28:04;;;;;;;3.50;2.13;;;11.30;60.40;;;;;;4996517;28;20026;-56
2021/12/25 06:30:30;;;;;;;2.63;2.30;;;11.20;60.30;;;;;;4999922;28;20687;-55
2021/12/25 06:32:56;;;;;;;2.95;1.98;;;11.20;60.40;;;;;;4998107;28;20033;-56
2021/12/25 06:35:22;;;;;;;3.20;2.28;;;11.20;60.50;;;;;;5001577;28;20406;-55
2021/12/25 06:37:48;;;;;;;2.97;1.73;;;11.10;60.50;;;;;;4999725;28;20037;-52
2021/12/25 06:40:19;;;;;;;1.52;1.10;;;11.10;60.40;;;;;;5000205;28;20029;-54
2021/12/25 06:42:46;;;;;;;1.88;1.25;;;11.00;60.40;;;;;;4998859;28;20505;-55
2021/12/25 06:45:13;;;;;;;2.22;1.48;;;11.00;60.40;;;;;;4997337;28;20034;-55
2021/12/25 06:47:39;;;;;;;2.53;1.40;;;10.90;60.50;;;;;;4997969;28;20021;-52
2021/12/25 06:50:08;;;;;;;1.75;1.25;;;10.90;60.50;;;;;;4999514;28;20482;-50
2021/12/25 06:52:35;;;;;;;3.22;1.83;;;10.80;60.50;;;;;;4979602;28;20041;-53
2021/12/25 06:55:02;;;;;;;1.10;1.00;;;10.90;60.30;;;;;;5000530;28;20061;-56
2021/12/25 06:57:29;;;;;;;1.33;0.95;;;10.80;60.00;;;;;;4979643;28;20409;-55
2021/12/25 06:59:55;;;;;;;1.13;0.93;;;10.80;59.80;;;;;;5000517;28;20490;-55
2021/12/25 07:02:21;;;;;;;3.35;0.88;;;10.80;59.60;;;;;;4995835;28;20590;-54
2021/12/25 07:04:48;;;;;;;1.30;0.93;;;10.70;59.40;;;;;;4999359;28;20014;-55
2021/12/25 07:07:16;;;;;;;2.30;1.00;;;10.70;59.20;;;;;;4993197;28;20053;-56
2021/12/25 07:09:42;;;;;;;0.90;0.80;;;10.70;59.10;;;;;;4992760;28;20041;-51
2021/12/25 07:12:09;;;;;;;0.73;0.65;;;10.60;58.90;;;;;;4995335;28;20508;-50
2021/12/25 07:14:35;;;;;;;0.88;0.70;;;10.50;58.80;;;;;;4998788;28;20061;-53
2021/12/25 07:17:01;;;;;;;2.25;0.70;;;10.50;58.80;;;;;;4996151;28;20034;-53
2021/12/25 07:19:27;;;;;;;0.80;0.80;;;10.40;58.70;;;;;;5000340;28;20389;-53
2021/12/25 07:21:53;;;;;;;0.80;0.73;;;10.30;58.70;;;;;;5000010;28;20037;-54
2021/12/25 07:24:19;;;;;;;2.90;1.13;;;10.30;58.80;;;;;;4979948;28;20038;-54
2021/12/25 07:26:47;;;;;;;1.75;1.00;;;10.20;58.80;;;;;;4998738;28;20021;-49
2021/12/25 07:29:13;;;;;;;1.95;0.90;;;10.20;58.90;;;;;;4995040;28;20459;-54
2021/12/25 07:31:39;;;;;;;1.08;0.75;;;10.10;58.80;;;;;;4991374;28;20045;-54
2021/12/25 07:34:06;;;;;;;1.58;1.02;;;10.10;58.90;;;;;;5000828;28;20045;-55
2021/12/25 07:36:32;;;;;;;1.00;0.60;;;10.00;58.90;;;;;;5000719;28;20618;-55
2021/12/25 07:39:00;;;;;;;2.10;1.08;;;10.00;59.00;;;;;;4999516;28;20052;-52
2021/12/25 07:41:26;;;;;;;0.85;0.80;;;9.90;59.10;;;;;;4999414;28;20037;-55
2021/12/25 07:43:53;;;;;;;1.55;1.02;;;9.90;59.20;;;;;;4998223;28;20355;-53
2021/12/25 07:46:19;;;;;;;3.42;1.27;;;9.80;59.20;;;;;;4972495;28;20033;-52
2021/12/25 07:48:47;;;;;;;1.30;0.90;;;9.80;59.10;;;;;;4997900;28;20558;-54
2021/12/25 07:51:13;;;;;;;3.45;2.17;;;9.80;59.00;;;;;;4980860;28;20053;-54
2021/12/25 07:53:43;;;;;;;1.58;1.40;;;9.70;58.90;;;;;;5001689;28;20474;-54
2021/12/25 07:56:10;;;;;;;1.95;1.17;;;9.70;58.90;;;;;;4999897;28;20057;-52
2021/12/25 07:58:37;;;;;;;1.20;1.10;;;9.60;58.90;;;;;;4997359;28;20034;-51
2021/12/25 08:01:03;;;;;;;1.30;1.08;;;9.60;59.00;;;;;;4998848;28;20029;-52
2021/12/25 08:03:29;;;;;;;1.23;1.13;;;9.50;59.10;;;;;;4999410;28;20037;-55
2021/12/25 08:05:56;;;;;;;3.60;1.13;;;9.50;59.00;;;;;;4997906;28;20046;-54
2021/12/25 08:08:22;;;;;;;2.30;1.13;;;9.50;58.90;;;;;;4997063;28;20052;-52
2021/12/25 08:10:48;;;;;;;1.23;1.13;;;9.50;58.90;;;;;;4983141;28;20038;-55
2021/12/25 08:13:16;;;;;;;2.45;1.10;;;9.50;58.90;;;;;;4994080;28;20029;-54
2021/12/25 08:15:43;;;;;;;2.17;1.40;;;9.50;58.80;;;;;;4997838;28;20046;-53
2021/12/25 08:18:10;;;;;;;1.00;0.85;;;9.50;58.70;;;;;;4995059;28;20045;-52
2021/12/25 08:20:36;;;;;;;1.45;1.05;;;9.40;58.60;;;;;;4997235;28;20038;-55
2021/12/25 08:23:03;;;;;;;1.38;1.10;;;9.40;58.50;;;;;;4992099;28;20800;-54
2021/12/25 08:25:30;;;;;;;2.75;1.30;;;9.40;58.50;;;;;;4999029;28;20086;-52
2021/12/25 08:27:56;;;;;;;8.15;4.15;;;9.40;58.60;;;;;;4996745;28;20697;-54
2021/12/25 08:30:26;;;;;;;5.40;3.03;;;9.30;58.60;;;;;;4996624;28;20030;-56
2021/12/25 08:32:55;;;;;;;2.63;1.90;;;9.30;58.60;;;;;;4997950;28;20041;-55
2021/12/25 08:35:24;;;;;;;1.48;1.20;;;9.30;58.70;;;;;;4992818;28;20471;-55
2021/12/25 08:37:50;;;;;;;1.70;1.20;;;9.20;58.60;;;;;;4997430;28;20382;-50
2021/12/25 08:40:17;;;;;;;1.80;1.23;;;9.20;58.60;;;;;;4998746;28;20363;-56
2021/12/25 08:42:52;;;;;;;1.25;0.82;;;9.10;58.50;;;;;;5000298;28;20033;-53
2021/12/25 08:45:42;;;;;;;1.10;0.90;;;9.10;58.50;;;;;;4997746;28;20041;-55
2021/12/25 08:48:15;;;;;;;1.95;1.00;;;9.10;58.50;;;;;;4995636;28;20053;-54
2021/12/25 08:50:46;;;;;;;1.60;0.95;;;9.00;58.50;;;;;;4999519;28;20041;-56
2021/12/25 08:53:12;;;;;;;1.20;1.10;;;9.00;58.60;;;;;;4996761;28;20496;-55
2021/12/25 08:55:38;;;;;;;1.20;1.00;;;8.90;58.60;;;;;;4997256;28;20042;-57
2021/12/25 08:58:05;;;;;;;1.30;1.02;;;8.90;58.70;;;;;;4979065;28;20042;-50
2021/12/25 09:00:31;;;;;;;2.17;1.23;;;8.90;58.70;;;;;;4998166;28;20026;-53
2021/12/25 09:02:57;;;;;;;1.42;0.90;;;8.80;58.70;;;;;;4996413;28;20041;-50
2021/12/25 09:05:23;;;;;;;1.25;1.02;;;8.80;58.80;;;;;;4975046;28;20041;-53
2021/12/25 09:07:50;;;;;;;42.60;17.23;;;8.80;58.90;;;;;;4989390;28;20963;-55
2021/12/25 09:10:18;;;;;;;5.20;2.67;;;8.70;58.90;;;;;;4994659;28;20034;-54
2021/12/25 09:12:45;;;;;;;1.55;1.27;;;8.70;58.90;;;;;;4993170;28;20030;-56
2021/12/25 09:15:12;;;;;;;2.67;1.10;;;8.70;58.90;;;;;;4997124;28;20080;-54
2021/12/25 09:17:40;;;;;;;8.35;1.17;;;8.60;58.90;;;;;;4994454;28;20044;-53
2021/12/25 09:20:07;;;;;;;1.98;1.20;;;8.60;59.00;;;;;;4995724;28;21071;-54
2021/12/25 09:22:34;;;;;;;1.45;1.20;;;8.60;59.10;;;;;;4997369;28;20462;-53
2021/12/25 09:25:00;;;;;;;1.52;1.17;;;8.60;59.10;;;;;;4995519;28;20052;-54
2021/12/25 09:27:26;;;;;;;1.15;1.05;;;8.50;59.10;;;;;;4997555;28;20463;-53
2021/12/25 09:29:52;;;;;;;1.40;1.10;;;8.50;59.20;;;;;;4996789;28;20022;-54
2021/12/25 09:32:20;;;;;;;1.25;0.88;;;8.50;59.30;;;;;;4997206;28;20042;-55
2021/12/25 09:34:46;;;;;;;1.20;0.95;;;8.50;59.30;;;;;;4996882;28;20478;-52
2021/12/25 09:37:13;;;;;;;2.05;1.15;;;8.50;59.40;;;;;;4979175;28;20042;-53
2021/12/25 09:39:40;;;;;;;0.98;0.85;;;8.40;59.30;;;;;;4998775;28;20037;-53
2021/12/25 09:42:07;;;;;;;2.08;0.95;;;8.40;59.30;;;;;;4999830;28;20022;-54
2021/12/25 09:44:33;;;;;;;30.45;12.88;;;8.40;59.40;;;;;;4998003;28;20349;-55
2021/12/25 09:47:01;;;;;;;4.85;2.30;;;8.40;59.60;;;;;;4997486;28;20026;-55
2021/12/25 09:49:27;;;;;;;1.27;1.00;;;8.40;59.60;;;;;;4997564;28;20061;-55
2021/12/25 09:51:53;;;;;;;0.98;0.70;;;8.40;59.50;;;;;;4999908;28;20033;-54
2021/12/25 09:54:19;;;;;;;1.10;0.80;;;8.40;59.50;;;;;;4982075;28;20037;-54
2021/12/25 09:56:49;;;;;;;0.80;0.75;;;8.40;59.40;;;;;;5000464;28;20034;-51
2021/12/25 09:59:16;;;;;;;0.80;0.80;;;8.40;59.30;;;;;;4997373;28;20030;-57
2021/12/25 10:01:43;;;;;;;1.30;0.95;;;8.30;59.30;;;;;;4978538;28;20041;-55
2021/12/25 10:04:34;;;;;;;1.77;1.00;;;8.30;59.30;;;;;;4998601;28;20390;-53
2021/12/25 10:07:19;;;;;;;0.90;0.73;;;8.30;59.30;;;;;;4996355;28;20386;-55
2021/12/25 10:09:53;;;;;;;0.77;0.77;;;8.30;59.30;;;;;;4999892;28;20375;-54
2021/12/25 10:12:20;;;;;;;1.02;0.80;;;8.30;59.30;;;;;;4979935;28;20034;-54
2021/12/25 10:14:52;;;;;;;1.50;0.88;;;8.20;59.30;;;;;;4994471;28;20041;-53
2021/12/25 10:17:21;;;;;;;1.05;0.90;;;8.20;59.30;;;;;;4999166;28;20042;-53
2021/12/25 10:20:17;;;;;;;0.80;0.77;;;8.20;59.50;;;;;;5003007;28;20018;-56
2021/12/25 10:22:58;;;;;;;1.55;0.93;;;8.20;59.70;;;;;;4996508;28;20506;-53
2021/12/25 10:25:27;;;;;;;1.15;1.05;;;8.20;59.60;;;;;;5000134;28;20029;-53
2021/12/25 10:27:57;;;;;;;0.82;0.82;;;8.20;59.50;;;;;;5001108;28;20036;-55
2021/12/25 10:30:24;;;;;;;0.80;0.80;;;8.20;59.40;;;;;;5000623;28;20042;-52
2021/12/25 10:32:50;;;;;;;1.05;0.98;;;8.20;59.40;;;;;;4996166;28;20036;-54
2021/12/25 10:35:22;;;;;;;1.52;0.93;;;8.20;59.30;;;;;;5000364;28;20038;-57
2021/12/25 10:37:52;;;;;;;1.15;1.00;;;8.10;59.30;;;;;;4996058;28;20603;-55
2021/12/25 10:40:24;;;;;;;0.80;0.80;;;8.10;59.30;;;;;;5002584;28;20025;-55
2021/12/25 10:42:52;;;;;;;1.17;0.90;;;8.10;59.20;;;;;;5001546;28;20378;-54
2021/12/25 10:45:19;;;;;;;0.80;0.80;;;8.10;59.20;;;;;;5002686;28;20026;-51
2021/12/25 10:47:58;;;;;;;1.45;0.93;;;8.10;59.20;;;;;;4990173;28;20054;-55
2021/12/25 10:50:25;;;;;;;2.30;0.90;;;8.10;59.20;;;;;;4991112;28;20522;-56
2021/12/25 10:52:51;;;;;;;1.23;0.93;;;8.00;59.10;;;;;;4999359;28;20038;-55
2021/12/25 10:55:23;;;;;;;1.45;1.02;;;8.00;59.10;;;;;;4995996;28;20057;-53
2021/12/25 10:57:53;;;;;;;1.05;0.90;;;8.00;59.10;;;;;;5000002;28;20374;-55
2021/12/25 11:00:22;;;;;;;2.65;0.90;;;8.00;59.20;;;;;;5001682;28;20382;-55
2021/12/25 11:02:52;;;;;;;1.10;1.00;;;8.00;59.20;;;;;;4999802;28;20037;-57
2021/12/25 11:05:22;;;;;;;1.05;0.75;;;8.00;59.20;;;;;;5003052;28;20037;-54
2021/12/25 11:08:07;;;;;;;3.28;1.00;;;7.90;59.10;;;;;;5000712;28;20030;-55
2021/12/25 11:10:55;;;;;;;1.17;1.05;;;8.00;59.20;;;;;;5000259;28;20045;-54
2021/12/25 11:13:51;;;;;;;1.83;1.20;;;8.00;59.30;;;;;;5002525;28;20397;-54
2021/12/25 11:16:30;;;;;;;3.88;1.30;;;8.00;59.30;;;;;;4998117;28;20053;-52
2021/12/25 11:19:06;;;;;;;1.15;0.80;;;8.00;59.30;;;;;;4999921;28;20026;-55
2021/12/25 11:21:36;;;;;;;1.42;1.20;;;8.00;59.20;;;;;;5001530;28;20037;-55
2021/12/25 11:24:09;;;;;;;1.38;1.08;;;8.00;59.10;;;;;;5002351;28;20026;-56
2021/12/25 11:26:37;;;;;;;3.22;1.00;;;8.00;59.00;;;;;;5002477;28;20026;-54
2021/12/25 11:29:06;;;;;;;1.10;0.82;;;8.00;58.90;;;;;;4999213;28;20018;-51
2021/12/25 11:31:32;;;;;;;1.67;1.23;;;8.00;58.90;;;;;;5001382;28;20029;-56
2021/12/25 11:33:59;;;;;;;1.33;1.08;;;8.00;58.90;;;;;;5001127;28;20076;-55
2021/12/25 11:36:25;;;;;;;1.10;1.00;;;7.90;58.90;;;;;;5002227;28;20371;-55
2021/12/25 11:38:52;;;;;;;1.25;1.10;;;7.90;58.90;;;;;;4999760;28;20025;-55
2021/12/25 11:41:23;;;;;;;2.50;1.30;;;7.90;58.80;;;;;;4981561;28;20038;-53
2021/12/25 11:43:51;;;;;;;2.47;1.20;;;7.90;58.70;;;;;;5001601;28;20040;-55
2021/12/25 11:46:17;;;;;;;1.40;0.98;;;7.90;58.70;;;;;;5000258;28;20057;-51
2021/12/25 11:48:45;;;;;;;1.30;1.20;;;7.90;58.60;;;;;;4997134;28;20018;-55
2021/12/25 11:51:28;;;;;;;1.70;1.17;;;7.80;58.50;;;;;;5001587;28;20425;-55
2021/12/25 11:59:09;;;;;;;1.55;1.10;;;7.80;58.20;;;;;;5000712;28;20475;-55
2021/12/25 12:01:42;;;;;;;0.73;0.70;;;7.80;58.20;;;;;;4999070;28;20057;-56
2021/12/25 12:04:11;;;;;;;3.28;0.90;;;7.70;58.20;;;;;;4996699;28;20041;-55
2021/12/25 12:06:46;;;;;;;2.33;1.13;;;7.70;58.10;;;;;;4999920;28;20034;-55
2021/12/25 12:09:18;;;;;;;1.20;0.90;;;7.70;58.10;;;;;;4998496;28;20037;-57
2021/12/25 12:12:07;;;;;;;1.67;1.27;;;7.70;58.20;;;;;;4999640;28;20026;-54
2021/12/25 12:14:33;;;;;;;1.58;1.20;;;7.70;58.50;;;;;;5001030;28;20041;-54
2021/12/25 12:17:03;;;;;;;1.80;1.10;;;7.70;58.20;;;;;;4995909;28;20489;-57
2021/12/25 12:22:37;;;;;;;1.27;1.00;;;7.60;58.10;;;;;;4998860;28;20045;-55
2021/12/25 12:27:37;;;;;;;0.65;0.65;;;7.70;58.10;;;;;;4998544;28;20716;-54
2021/12/25 12:30:11;;;;;;;1.13;0.93;;;7.60;58.00;;;;;;4998286;28;20030;-53
2021/12/25 12:32:43;;;;;;;2.35;1.08;;;7.70;57.80;;;;;;4998779;28;20037;-55
2021/12/25 12:35:37;;;;;;;1.55;0.93;;;7.70;57.60;;;;;;5000167;28;20037;-54
2021/12/25 12:38:25;;;;;;;1.20;0.90;;;7.70;57.20;;;;;;4997675;28;20042;-55
2021/12/25 12:41:26;;;;;;;1.20;0.82;;;7.70;57.20;;;;;;4974983;28;20037;-55
2021/12/25 12:44:06;;;;;;;1.25;0.90;;;7.70;57.00;;;;;;5000048;28;20036;-55
2021/12/25 12:46:48;;;;;;;1.05;0.90;;;7.70;57.00;;;;;;4996652;28;20547;-56
2021/12/25 12:49:19;;;;;;;1.00;0.90;;;7.70;56.90;;;;;;4995659;28;20042;-54
2021/12/25 12:51:47;;;;;;;0.93;0.80;;;7.60;57.00;;;;;;5001252;28;20030;-55
2021/12/25 12:54:38;;;;;;;1.23;0.90;;;7.60;57.00;;;;;;4999130;28;20057;-55
2021/12/25 12:57:05;;;;;;;1.33;0.60;;;7.60;56.90;;;;;;4999092;28;20053;-52
2021/12/25 12:59:45;;;;;;;1.10;0.85;;;7.60;56.90;;;;;;5000534;28;20037;-54
2021/12/25 13:02:13;;;;;;;1.52;0.82;;;7.60;56.90;;;;;;4998321;28;20402;-55
2021/12/25 13:04:46;;;;;;;1.35;0.95;;;7.50;56.90;;;;;;4999968;28;20021;-55
2021/12/25 13:07:14;;;;;;;1.33;0.70;;;7.50;57.00;;;;;;4999211;28;20030;-56
2021/12/25 13:09:51;;;;;;;1.25;1.15;;;7.50;57.10;;;;;;4999105;28;20530;-55
2021/12/25 13:12:46;;;;;;;1.58;1.00;;;7.40;57.10;;;;;;4999003;28;20054;-55
2021/12/25 13:15:18;;;;;;;1.73;0.70;;;7.50;57.20;;;;;;4999244;28;20036;-54
2021/12/25 13:17:55;;;;;;;0.90;0.70;;;7.40;57.20;;;;;;4998083;28;20030;-57
2021/12/25 13:20:44;;;;;;;1.27;0.90;;;7.40;57.40;;;;;;4993382;28;20034;-56
2021/12/25 13:23:24;;;;;;;1.65;1.20;;;7.40;57.40;;;;;;4999900;28;20049;-54
2021/12/25 13:25:57;;;;;;;1.98;1.10;;;7.40;57.40;;;;;;4996954;28;20057;-57
2021/12/25 13:28:25;;;;;;;1.05;0.90;;;7.40;57.40;;;;;;4998292;28;20420;-54
2021/12/25 13:30:58;;;;;;;1.08;0.98;;;7.40;57.40;;;;;;4997091;28;20486;-53
2021/12/25 13:33:27;;;;;;;1.40;0.82;;;7.30;57.20;;;;;;4998710;28;20038;-57
2021/12/25 13:36:09;;;;;;;1.48;0.80;;;7.30;57.20;;;;;;4997890;28;20488;-56
2021/12/25 13:38:43;;;;;;;2.58;0.80;;;7.20;57.00;;;;;;4999794;28;20680;-55
2021/12/25 13:41:09;;;;;;;1.40;0.80;;;7.20;57.00;;;;;;5000193;28;20037;-54
2021/12/25 13:43:36;;;;;;;1.42;0.80;;;7.20;57.00;;;;;;4981196;28;20041;-55
2021/12/25 13:46:02;;;;;;;0.90;0.70;;;7.20;57.00;;;;;;5000644;28;20149;-56
2021/12/25 13:48:39;;;;;;;1.42;0.80;;;7.20;57.10;;;;;;5000206;28;20074;-55
2021/12/25 13:51:06;;;;;;;1.75;0.88;;;7.20;57.20;;;;;;5003149;28;20030;-52
2021/12/25 13:53:32;;;;;;;2.67;0.80;;;7.10;57.30;;;;;;5001361;28;20030;-53
2021/12/25 13:56:09;;;;;;;1.70;0.85;;;7.10;57.30;;;;;;4983701;28;20037;-55
2021/12/25 13:58:35;;;;;;;0.82;0.70;;;7.10;57.30;;;;;;4981311;28;20483;-56
2021/12/25 14:01:02;;;;;;;1.30;1.00;;;7.10;57.10;;;;;;5003454;28;20682;-54
2021/12/25 14:03:30;;;;;;;0.95;0.73;;;7.10;57.10;;;;;;5002705;28;20030;-53
2021/12/25 14:05:56;;;;;;;0.82;0.65;;;7.10;57.10;;;;;;5003322;28;20502;-56
2021/12/25 14:08:26;;;;;;;0.98;0.75;;;7.10;57.10;;;;;;4998385;28;20460;-56
2021/12/25 14:10:59;;;;;;;1.30;1.08;;;7.10;56.90;;;;;;5000428;28;20038;-53
2021/12/25 14:13:28;;;;;;;1.33;0.90;;;7.10;56.90;;;;;;5000791;28;20038;-54
2021/12/25 14:15:56;;;;;;;1.38;1.00;;;7.10;56.90;;;;;;5002328;28;20030;-55
2021/12/25 14:18:31;;;;;;;1.42;0.93;;;7.00;56.80;;;;;;4979880;28;20037;-55
2021/12/25 14:21:13;;;;;;;1.52;0.88;;;7.00;56.90;;;;;;5003293;28;20049;-52
2021/12/25 14:23:40;;;;;;;2.85;0.90;;;7.00;56.90;;;;;;5002477;28;20037;-53
2021/12/25 14:26:06;;;;;;;2.55;1.20;;;7.00;56.90;;;;;;5003645;28;20045;-56
2021/12/25 14:28:36;;;;;;;1.35;1.00;;;7.00;56.90;;;;;;4996578;28;20907;-55